createdAt,value
2023-05-05T00:02:21.762Z,15.97
2023-05-05T00:04:49.791Z,15.87
2023-05-05T00:07:17.565Z,15.87
2023-05-05T00:09:45.565Z,15.88
2023-05-05T00:12:13.538Z,15.84
2023-05-05T00:14:41.905Z,15.85
2023-05-05T00:17:10.031Z,15.77
2023-05-05T00:19:38.009Z,15.76
2023-05-05T00:22:06.216Z,15.73
2023-05-05T00:24:34.118Z,15.63
2023-05-05T00:27:02.392Z,15.64
2023-05-05T00:29:30.742Z,15.61
2023-05-05T00:31:58.612Z,15.47
2023-05-05T00:34:26.406Z,15.49
2023-05-05T00:36:54.922Z,15.53
2023-05-05T00:39:23.553Z,15.51
2023-05-05T00:41:51.653Z,15.44
2023-05-05T00:44:37.165Z,15.39
2023-05-05T00:47:06.034Z,15.35
2023-05-05T00:49:35.174Z,15.42
2023-05-05T00:52:04.876Z,15.42
2023-05-05T00:54:36.514Z,15.45
2023-05-05T00:57:05.519Z,15.43
2023-05-05T00:59:34.345Z,15.40
2023-05-05T01:02:02.840Z,15.34
2023-05-05T01:04:30.733Z,15.35
2023-05-05T01:07:14.989Z,15.49
2023-05-05T01:10:19.685Z,15.45
2023-05-05T01:13:02.331Z,15.40
2023-05-05T01:15:33.318Z,15.29
2023-05-05T01:18:20.135Z,15.29
2023-05-05T01:20:57.908Z,15.22
2023-05-05T01:24:01.338Z,15.16
2023-05-05T01:26:55.709Z,15.18
2023-05-05T01:29:42.229Z,15.15
2023-05-05T01:32:22.358Z,15.00
2023-05-05T01:34:59.274Z,15.10
2023-05-05T01:37:37.249Z,15.15
2023-05-05T01:40:08.484Z,15.15
2023-05-05T01:42:38.433Z,15.05
2023-05-05T01:45:08.762Z,15.07
2023-05-05T01:47:38.547Z,15.09
2023-05-05T01:50:08.675Z,15.02
2023-05-05T01:52:40.374Z,15.05
2023-05-05T01:55:10.552Z,15.00
2023-05-05T01:57:41.759Z,15.02
2023-05-05T02:00:11.676Z,14.94
2023-05-05T02:02:46.818Z,14.96
2023-05-05T02:05:17.216Z,14.93
2023-05-05T02:07:47.078Z,14.89
2023-05-05T02:10:15.449Z,14.81
2023-05-05T02:12:46.876Z,14.75
2023-05-05T02:15:16.722Z,14.69
2023-05-05T02:17:46.580Z,14.63
2023-05-05T02:20:16.373Z,14.61
2023-05-05T02:22:44.292Z,14.53
2023-05-05T02:25:12.332Z,14.59
2023-05-05T02:27:43.382Z,14.55
2023-05-05T02:30:15.943Z,14.57
2023-05-05T02:32:56.057Z,14.47
2023-05-05T02:35:35.498Z,14.54
2023-05-05T02:38:06.604Z,14.48
2023-05-05T02:40:42.514Z,14.42
2023-05-05T02:43:17.066Z,14.27
2023-05-05T02:45:45.196Z,14.33
2023-05-05T02:48:14.366Z,14.29
2023-05-05T02:50:42.169Z,14.28
2023-05-05T02:53:27.826Z,14.32
2023-05-05T02:56:28.797Z,14.26
2023-05-05T02:59:20.231Z,14.27
2023-05-05T03:01:59.425Z,14.22
2023-05-05T03:04:35.435Z,14.29
2023-05-05T03:07:11.880Z,14.35
2023-05-05T03:09:45.932Z,14.34
2023-05-05T03:12:21.383Z,14.34
2023-05-05T03:15:10.584Z,14.30
2023-05-05T03:17:42.097Z,14.35
2023-05-05T03:20:11.364Z,14.26
2023-05-05T03:22:42.184Z,14.26
2023-05-05T03:25:13.864Z,14.26
2023-05-05T03:27:42.085Z,14.16
2023-05-05T03:30:12.919Z,14.21
2023-05-05T03:32:48.645Z,14.17
2023-05-05T03:35:17.220Z,14.17
2023-05-05T03:37:45.292Z,14.11
2023-05-05T03:40:15.357Z,14.16
2023-05-05T03:42:43.246Z,14.20
2023-05-05T03:45:11.222Z,14.25
2023-05-05T03:47:40.413Z,14.17
2023-05-05T03:50:09.469Z,14.21
2023-05-05T03:52:37.708Z,14.17
2023-05-05T03:55:07.063Z,14.13
2023-05-05T03:57:35.082Z,14.19
2023-05-05T04:00:03.128Z,14.29
2023-05-05T04:02:42.262Z,14.22
2023-05-05T04:05:13.027Z,14.12
2023-05-05T04:07:40.953Z,14.15
2023-05-05T04:10:09.416Z,14.19
2023-05-05T04:12:37.640Z,14.23
2023-05-05T04:15:07.048Z,14.32
2023-05-05T04:17:35.382Z,14.34
2023-05-05T04:20:04.967Z,14.40
2023-05-05T04:22:34.402Z,14.44
2023-05-05T04:25:02.875Z,14.47
2023-05-05T04:27:30.823Z,14.47
2023-05-05T04:30:00.565Z,14.48
2023-05-05T04:32:28.505Z,14.48
2023-05-05T04:34:56.694Z,14.52
2023-05-05T04:37:25.979Z,14.75
2023-05-05T04:39:54.194Z,15.24
2023-05-05T04:42:22.485Z,15.44
2023-05-05T04:44:50.818Z,15.46
2023-05-05T04:47:18.932Z,15.68
2023-05-05T04:49:46.942Z,15.70
2023-05-05T04:52:15.048Z,15.69
2023-05-05T04:54:42.954Z,15.62
2023-05-05T04:57:10.765Z,15.76
2023-05-05T04:59:38.640Z,15.89
2023-05-05T05:02:06.677Z,15.92
2023-05-05T05:04:34.645Z,16.05
2023-05-05T05:07:02.603Z,16.29
2023-05-05T05:09:30.635Z,16.49
2023-05-05T05:12:03.301Z,16.52
2023-05-05T05:14:37.048Z,16.52
2023-05-05T05:17:05.649Z,16.64
2023-05-05T05:19:34.852Z,16.63
2023-05-05T05:22:03.666Z,16.51
2023-05-05T05:24:35.004Z,16.66
2023-05-05T05:27:03.498Z,16.70
2023-05-05T05:29:31.500Z,16.61
2023-05-05T05:32:01.197Z,16.72
2023-05-05T05:34:29.752Z,16.81
2023-05-05T05:36:58.163Z,16.87
2023-05-05T05:39:26.061Z,17.14
2023-05-05T05:41:54.103Z,17.15
2023-05-05T05:44:22.100Z,17.35
2023-05-05T05:46:49.996Z,17.49
2023-05-05T05:49:18.734Z,17.60
2023-05-05T05:51:46.892Z,17.48
2023-05-05T05:54:14.914Z,17.58
2023-05-05T05:56:43.829Z,17.70
2023-05-05T05:59:12.714Z,17.81
2023-05-05T06:01:41.895Z,17.86
2023-05-05T06:04:10.082Z,17.88
2023-05-05T06:06:39.411Z,18.06
2023-05-05T06:09:07.273Z,18.22
2023-05-05T06:11:37.176Z,18.22
2023-05-05T06:14:05.151Z,18.24
2023-05-05T06:16:33.379Z,18.37
2023-05-05T06:19:09.699Z,18.49
2023-05-05T06:21:38.597Z,18.61
2023-05-05T06:24:06.842Z,18.66
2023-05-05T06:26:36.248Z,18.78
2023-05-05T06:29:04.328Z,18.79
2023-05-05T06:31:32.303Z,18.89
2023-05-05T06:34:00.199Z,18.86
2023-05-05T06:36:28.451Z,19.01
2023-05-05T06:38:56.425Z,19.02
2023-05-05T06:41:24.628Z,19.16
2023-05-05T06:43:52.463Z,19.15
2023-05-05T06:46:20.367Z,19.23
2023-05-05T06:48:48.317Z,19.48
2023-05-05T06:51:16.448Z,19.61
2023-05-05T06:53:44.251Z,19.72
2023-05-05T06:56:12.127Z,19.69
2023-05-05T06:58:40.267Z,19.81
2023-05-05T07:01:08.786Z,19.91
2023-05-05T07:03:36.829Z,19.99
2023-05-05T07:06:05.030Z,20.01
2023-05-05T07:08:32.885Z,19.99
2023-05-05T07:11:01.385Z,20.05
2023-05-05T07:13:29.262Z,20.25
2023-05-05T07:15:57.172Z,20.39
2023-05-05T07:18:25.153Z,20.38
2023-05-05T07:20:53.049Z,20.41
2023-05-05T07:23:20.901Z,20.48
2023-05-05T07:25:49.220Z,20.57
2023-05-05T07:28:17.153Z,20.54
2023-05-05T07:30:44.975Z,20.70
2023-05-05T07:33:12.915Z,20.75
2023-05-05T07:35:41.050Z,20.76
2023-05-05T07:38:10.799Z,20.91
2023-05-05T07:40:38.913Z,20.75
2023-05-05T07:43:07.077Z,20.91
2023-05-05T07:45:34.919Z,21.02
2023-05-05T07:48:02.933Z,21.08
2023-05-05T07:50:30.944Z,21.08
2023-05-05T07:53:10.719Z,21.13
2023-05-05T07:55:41.630Z,21.24
2023-05-05T07:58:11.292Z,21.34
2023-05-05T08:00:39.953Z,21.25
2023-05-05T08:03:11.363Z,21.28
2023-05-05T08:05:39.974Z,21.43
2023-05-05T08:08:08.202Z,21.48
2023-05-05T08:10:36.349Z,21.47
2023-05-05T08:13:04.292Z,21.55
2023-05-05T08:18:00.012Z,21.56
2023-05-05T08:20:29.675Z,21.57
2023-05-05T08:22:57.595Z,21.73
2023-05-05T08:25:27.130Z,21.92
2023-05-05T08:27:55.079Z,21.88
2023-05-05T08:30:28.938Z,21.96
2023-05-05T08:32:57.047Z,21.83
2023-05-05T08:35:25.252Z,21.96
2023-05-05T08:37:53.314Z,21.85
2023-05-05T08:40:29.506Z,21.97
2023-05-05T08:42:57.534Z,22.07
2023-05-05T08:45:28.288Z,22.11
2023-05-05T08:48:05.291Z,22.17
2023-05-05T08:50:33.447Z,22.18
2023-05-05T08:53:11.076Z,22.14
2023-05-05T08:55:52.443Z,22.18
2023-05-05T08:58:22.496Z,22.24
2023-05-05T09:00:50.952Z,22.42
2023-05-05T09:03:19.015Z,22.40
2023-05-05T09:05:47.697Z,22.27
2023-05-05T09:08:15.628Z,22.51
2023-05-05T09:10:44.938Z,22.29
2023-05-05T09:13:13.415Z,22.45
2023-05-05T09:15:42.278Z,22.49
2023-05-05T09:18:12.373Z,22.65
2023-05-05T09:20:41.464Z,22.75
2023-05-05T09:23:12.396Z,22.85
2023-05-05T09:25:44.936Z,22.88
2023-05-05T09:28:17.944Z,22.91
2023-05-05T09:30:47.127Z,22.80
2023-05-05T09:33:28.644Z,23.05
2023-05-05T09:35:56.680Z,23.17
2023-05-05T09:38:25.668Z,23.21
2023-05-05T09:40:54.788Z,22.90
2023-05-05T09:43:23.862Z,23.22
2023-05-05T09:45:52.063Z,23.43
2023-05-05T09:48:27.327Z,23.47
2023-05-05T09:50:56.383Z,23.43
2023-05-05T09:53:25.695Z,23.38
2023-05-05T09:55:58.256Z,23.41
2023-05-05T09:58:28.632Z,23.38
2023-05-05T10:00:59.004Z,23.52
2023-05-05T10:03:27.015Z,23.60
2023-05-05T10:05:56.997Z,23.58
2023-05-05T10:08:30.667Z,23.69
2023-05-05T10:11:07.363Z,23.84
2023-05-05T10:13:37.766Z,23.82
2023-05-05T10:16:09.822Z,23.73
2023-05-05T10:18:44.559Z,23.73
2023-05-05T10:21:14.054Z,23.60
2023-05-05T10:24:02.249Z,23.67
2023-05-05T10:26:37.690Z,23.81
2023-05-05T10:29:11.693Z,24.03
2023-05-05T10:31:49.368Z,24.18
2023-05-05T10:34:50.046Z,24.15
2023-05-05T10:37:20.039Z,24.28
2023-05-05T10:39:50.260Z,24.42
2023-05-05T10:42:20.878Z,24.36
2023-05-05T10:44:49.429Z,24.39
2023-05-05T10:47:19.499Z,24.45
2023-05-05T10:50:21.725Z,24.40
2023-05-05T10:53:08.361Z,24.48
2023-05-05T10:55:39.223Z,24.70
2023-05-05T10:58:07.319Z,24.70
2023-05-05T11:00:38.327Z,25.01
2023-05-05T11:03:18.710Z,25.18
2023-05-05T11:06:08.015Z,25.38
2023-05-05T11:08:38.317Z,25.04
2023-05-05T11:11:06.972Z,24.72
2023-05-05T11:13:34.933Z,24.86
2023-05-05T11:16:02.975Z,25.18
2023-05-05T11:18:40.790Z,25.26
2023-05-05T11:21:17.442Z,25.06
2023-05-05T11:23:50.451Z,25.31
2023-05-05T11:26:53.837Z,25.41
2023-05-05T11:29:21.715Z,25.28
2023-05-05T11:32:12.626Z,25.42
2023-05-05T11:34:50.978Z,25.72
2023-05-05T11:37:24.662Z,25.53
2023-05-05T11:40:16.924Z,25.71
2023-05-05T11:42:44.934Z,25.54
2023-05-05T11:45:24.190Z,25.49
2023-05-05T11:47:52.329Z,25.69
2023-05-05T11:50:23.564Z,25.67
2023-05-05T11:52:51.605Z,25.73
2023-05-05T11:55:21.886Z,25.88
2023-05-05T11:57:49.877Z,26.01
2023-05-05T12:00:18.154Z,26.10
2023-05-05T12:02:46.314Z,26.29
2023-05-05T12:05:20.027Z,26.47
2023-05-05T12:07:48.914Z,26.39
2023-05-05T12:10:23.848Z,26.43
2023-05-05T12:12:55.346Z,26.67
2023-05-05T12:15:31.639Z,26.85
2023-05-05T12:18:02.363Z,26.88
2023-05-05T12:20:33.062Z,26.69
2023-05-05T12:23:04.759Z,26.67
2023-05-05T12:25:38.325Z,26.73
2023-05-05T12:28:08.841Z,26.85
2023-05-05T12:30:37.242Z,26.88
2023-05-05T12:33:07.400Z,26.98
2023-05-05T12:35:36.100Z,26.92
2023-05-05T12:38:04.258Z,26.79
2023-05-05T12:40:50.179Z,26.80
2023-05-05T12:43:35.160Z,26.82
2023-05-05T12:46:03.344Z,27.06
2023-05-05T12:48:31.876Z,27.08
2023-05-05T12:51:27.288Z,26.89
2023-05-05T12:54:05.453Z,26.99
2023-05-05T12:56:40.932Z,26.72
2023-05-05T12:59:10.828Z,26.89
2023-05-05T13:01:52.752Z,26.60
2023-05-05T13:04:23.276Z,27.00
2023-05-05T13:07:18.566Z,26.82
2023-05-05T13:09:51.314Z,27.23
2023-05-05T13:12:26.898Z,27.08
2023-05-05T13:14:56.100Z,27.06
2023-05-05T13:17:24.247Z,27.23
2023-05-05T13:19:52.471Z,27.07
2023-05-05T13:22:20.884Z,27.46
2023-05-05T13:24:52.308Z,27.46
2023-05-05T13:27:21.994Z,27.50
2023-05-05T13:29:50.281Z,27.49
2023-05-05T13:32:18.345Z,27.56
2023-05-05T13:34:46.312Z,27.69
2023-05-05T13:37:14.904Z,27.70
2023-05-05T13:39:43.458Z,27.77
2023-05-05T13:42:11.384Z,28.04
2023-05-05T13:44:39.945Z,28.00
2023-05-05T13:47:07.943Z,28.01
2023-05-05T13:49:36.063Z,27.94
2023-05-05T13:52:04.036Z,27.81
2023-05-05T13:54:31.865Z,27.67
2023-05-05T13:57:00.221Z,27.60
2023-05-05T13:59:28.444Z,27.66
2023-05-05T14:01:56.311Z,27.99
2023-05-05T14:04:24.344Z,28.22
2023-05-05T14:06:53.631Z,27.83
2023-05-05T14:09:21.677Z,27.89
2023-05-05T14:11:49.548Z,28.09
2023-05-05T14:14:18.248Z,28.12
2023-05-05T14:16:48.660Z,28.00
2023-05-05T14:19:18.088Z,27.69
2023-05-05T14:21:46.175Z,27.95
2023-05-05T14:24:14.247Z,27.84
2023-05-05T14:26:42.226Z,28.01
2023-05-05T14:29:10.188Z,28.09
2023-05-05T14:31:38.260Z,27.97
2023-05-05T14:34:06.216Z,28.02
2023-05-05T14:36:34.128Z,28.11
2023-05-05T14:39:02.175Z,27.95
2023-05-05T14:41:30.519Z,27.96
2023-05-05T14:43:59.486Z,27.84
2023-05-05T14:46:28.124Z,27.69
2023-05-05T14:48:56.653Z,27.54
2023-05-05T14:51:26.567Z,27.55
2023-05-05T14:53:55.140Z,27.30
2023-05-05T14:56:24.780Z,27.41
2023-05-05T14:58:53.367Z,27.12
2023-05-05T15:01:21.450Z,27.33
2023-05-05T15:03:49.500Z,27.19
2023-05-05T15:06:17.935Z,27.13
2023-05-05T15:08:46.017Z,27.18
2023-05-05T15:11:14.107Z,27.15
2023-05-05T15:13:42.100Z,26.99
2023-05-05T15:16:10.125Z,27.11
2023-05-05T15:18:38.536Z,27.01
2023-05-05T15:21:06.545Z,27.13
2023-05-05T15:23:34.984Z,27.16
2023-05-05T15:26:04.247Z,26.94
2023-05-05T15:28:32.317Z,26.93
2023-05-05T15:31:03.554Z,26.95
2023-05-05T15:33:31.695Z,26.82
2023-05-05T15:35:59.713Z,26.55
2023-05-05T15:38:29.461Z,26.47
2023-05-05T15:40:57.499Z,26.25
2023-05-05T15:43:26.089Z,26.27
2023-05-05T15:45:54.521Z,26.37
2023-05-05T15:48:22.962Z,26.43
2023-05-05T15:50:51.893Z,26.21
2023-05-05T15:53:21.138Z,26.15
2023-05-05T15:55:49.062Z,26.19
2023-05-05T16:02:55.276Z,25.97
2023-05-05T16:06:02.872Z,26.01
2023-05-05T16:12:02.920Z,26.14
2023-05-05T16:14:35.583Z,26.08
2023-05-05T16:17:04.002Z,25.93
2023-05-05T16:19:32.075Z,25.93
2023-05-05T16:22:00.184Z,25.71
2023-05-05T16:24:28.764Z,25.74
2023-05-05T16:26:56.761Z,25.74
2023-05-05T16:29:24.790Z,25.79
2023-05-05T16:31:55.733Z,25.77
2023-05-05T16:34:23.689Z,25.83
2023-05-05T16:36:51.837Z,25.73
2023-05-05T16:39:20.198Z,25.55
2023-05-05T16:41:48.699Z,25.55
2023-05-05T16:47:20.691Z,25.64
2023-05-05T16:49:48.802Z,25.63
2023-05-05T16:52:16.740Z,25.45
2023-05-05T16:54:45.037Z,25.47
2023-05-05T16:57:13.938Z,25.39
2023-05-05T16:59:42.166Z,25.44
2023-05-05T17:02:10.379Z,25.34
2023-05-05T17:04:38.419Z,25.36
2023-05-05T17:07:06.678Z,25.32
2023-05-05T17:09:34.866Z,25.25
2023-05-05T17:12:04.750Z,25.20
2023-05-05T17:14:34.067Z,25.16
2023-05-05T17:17:02.065Z,25.22
2023-05-05T17:19:30.110Z,25.04
2023-05-05T17:21:58.232Z,25.02
2023-05-05T17:24:26.238Z,24.97
2023-05-05T17:26:54.576Z,24.86
2023-05-05T17:29:23.890Z,24.81
2023-05-05T17:31:54.558Z,24.72
2023-05-05T17:34:22.772Z,24.75
2023-05-05T17:36:51.114Z,24.76
2023-05-05T17:39:19.103Z,24.62
2023-05-05T17:41:47.346Z,24.50
2023-05-05T17:44:15.534Z,24.50
2023-05-05T17:46:44.119Z,24.39
2023-05-05T17:49:12.588Z,24.34
2023-05-05T17:51:40.875Z,24.19
2023-05-05T17:54:09.063Z,24.21
2023-05-05T17:56:38.430Z,24.16
2023-05-05T17:59:06.559Z,24.16
2023-05-05T18:01:35.589Z,24.11
2023-05-05T18:04:04.131Z,24.03
2023-05-05T18:06:32.585Z,23.98
2023-05-05T18:09:01.147Z,23.95
2023-05-05T18:11:31.276Z,23.86
2023-05-05T18:14:00.140Z,23.83
2023-05-05T18:16:28.034Z,23.78
2023-05-05T18:18:56.514Z,23.70
2023-05-05T18:21:24.851Z,23.67
2023-05-05T18:23:57.305Z,23.66
2023-05-05T18:26:29.935Z,23.73
2023-05-05T18:28:58.179Z,23.66
2023-05-05T18:31:27.536Z,23.62
2023-05-05T18:33:55.728Z,23.58
2023-05-05T18:36:23.868Z,23.42
2023-05-05T18:38:52.149Z,23.39
2023-05-05T18:41:20.498Z,23.50
2023-05-05T18:43:49.343Z,23.35
2023-05-05T18:46:17.425Z,23.31
2023-05-05T18:48:45.773Z,23.28
2023-05-05T18:51:14.137Z,23.14
2023-05-05T18:53:42.058Z,23.18
2023-05-05T18:56:10.104Z,23.15
2023-05-05T18:58:38.361Z,23.06
2023-05-05T19:01:06.778Z,23.06
2023-05-05T19:03:35.075Z,23.01
2023-05-05T19:06:12.661Z,22.99
2023-05-05T19:08:41.410Z,22.99
2023-05-05T19:11:09.986Z,22.90
2023-05-05T19:16:13.442Z,22.92
2023-05-05T19:18:42.324Z,22.89
2023-05-05T19:21:15.320Z,22.78
2023-05-05T19:23:45.635Z,22.81
2023-05-05T19:26:14.994Z,22.67
2023-05-05T19:28:43.822Z,22.57
2023-05-05T19:31:12.379Z,22.51
2023-05-05T19:33:45.304Z,22.52
2023-05-05T19:36:13.606Z,22.39
2023-05-05T19:38:44.623Z,22.43
2023-05-05T19:41:13.044Z,22.35
2023-05-05T19:43:40.900Z,22.28
2023-05-05T19:46:09.280Z,22.11
2023-05-05T19:48:38.750Z,22.18
2023-05-05T19:51:07.798Z,21.94
2023-05-05T19:53:36.893Z,22.07
2023-05-05T19:56:05.351Z,21.92
2023-05-05T19:58:54.962Z,21.85
2023-05-05T20:01:23.233Z,21.74
2023-05-05T20:03:52.973Z,21.59
2023-05-05T20:06:21.430Z,21.62
2023-05-05T20:08:49.528Z,21.74
2023-05-05T20:11:18.288Z,21.67
2023-05-05T20:13:46.400Z,21.64
2023-05-05T20:16:15.489Z,21.65
2023-05-05T20:18:44.165Z,21.60
2023-05-05T20:21:12.210Z,21.53
2023-05-05T20:23:40.211Z,21.56
2023-05-05T20:26:10.104Z,21.44
2023-05-05T20:28:40.422Z,21.45
2023-05-05T20:31:11.177Z,21.27
2023-05-05T20:33:40.288Z,21.21
2023-05-05T20:36:16.470Z,21.14
2023-05-05T20:38:44.938Z,21.20
2023-05-05T20:41:13.253Z,21.06
2023-05-05T20:43:41.188Z,20.88
2023-05-05T20:46:13.392Z,20.98
2023-05-05T20:48:42.896Z,20.97
2023-05-05T20:51:11.588Z,20.88
2023-05-05T20:53:40.053Z,20.99
2023-05-05T20:56:09.200Z,20.90
2023-05-05T20:58:37.923Z,20.71
2023-05-05T21:01:05.865Z,20.60
2023-05-05T21:03:33.995Z,20.77
2023-05-05T21:06:02.154Z,20.61
2023-05-05T21:08:30.893Z,20.63
2023-05-05T21:10:58.868Z,20.58
2023-05-05T21:13:26.905Z,20.64
2023-05-05T21:15:54.772Z,20.57
2023-05-05T21:18:22.938Z,20.26
2023-05-05T21:20:51.015Z,19.85
2023-05-05T21:23:19.003Z,19.60
2023-05-05T21:25:46.969Z,19.46
2023-05-05T21:28:14.883Z,19.32
2023-05-05T21:30:42.752Z,19.21
2023-05-05T21:33:13.110Z,19.08
2023-05-05T21:35:41.128Z,19.04
2023-05-05T21:38:09.159Z,18.92
2023-05-05T21:40:36.984Z,18.84
2023-05-05T21:43:04.849Z,18.71
2023-05-05T21:45:32.707Z,18.58
2023-05-05T21:48:01.043Z,18.53
2023-05-05T21:50:29.547Z,18.49
2023-05-05T21:52:58.024Z,18.44
2023-05-05T21:55:25.945Z,18.42
2023-05-05T21:57:53.853Z,18.35
2023-05-05T22:00:21.771Z,18.32
2023-05-05T22:02:49.691Z,18.25
2023-05-05T22:05:17.621Z,18.24
2023-05-05T22:07:45.741Z,18.17
2023-05-05T22:10:13.637Z,18.22
2023-05-05T22:12:41.552Z,18.34
2023-05-05T22:15:10.278Z,18.23
2023-05-05T22:17:38.461Z,18.14
2023-05-05T22:20:07.230Z,18.09
2023-05-05T22:22:35.327Z,18.02
2023-05-05T22:25:03.175Z,17.94
2023-05-05T22:27:31.249Z,17.92
2023-05-05T22:29:59.634Z,17.88
2023-05-05T22:32:27.530Z,17.94
2023-05-05T22:34:55.503Z,17.89
2023-05-05T22:37:23.840Z,17.86
2023-05-05T22:39:51.668Z,17.86
2023-05-05T22:42:19.517Z,17.78
2023-05-05T22:44:47.524Z,17.81
2023-05-05T22:47:15.448Z,17.79
2023-05-05T22:49:43.391Z,17.89
2023-05-05T22:52:11.749Z,18.02
2023-05-05T22:54:39.505Z,17.93
2023-05-05T22:57:07.303Z,17.90
2023-05-05T22:59:35.179Z,17.86
2023-05-05T23:02:03.017Z,17.80
2023-05-05T23:04:30.879Z,17.67
2023-05-05T23:06:58.804Z,17.68
2023-05-05T23:09:26.748Z,17.60
2023-05-05T23:11:54.654Z,17.58
2023-05-05T23:14:22.459Z,17.58
2023-05-05T23:16:50.645Z,17.48
2023-05-05T23:19:18.597Z,17.37
2023-05-05T23:21:53.241Z,17.40
2023-05-05T23:24:22.388Z,17.37
2023-05-05T23:26:52.057Z,17.35
2023-05-05T23:29:20.811Z,17.33
2023-05-05T23:31:48.824Z,17.30
2023-05-05T23:34:16.782Z,17.28
2023-05-05T23:36:44.658Z,17.19
2023-05-05T23:39:12.550Z,17.08
2023-05-05T23:41:40.318Z,17.13
2023-05-05T23:44:08.212Z,17.22
2023-05-05T23:46:36.194Z,17.19
2023-05-05T23:49:04.069Z,17.20
2023-05-05T23:51:32.875Z,17.17
2023-05-05T23:54:00.702Z,17.14
2023-05-05T23:56:28.577Z,17.06
2023-05-05T23:58:56.459Z,17.01
